Kezdőlap
METAR-TAF:

METAR-TAF

Repülőterek :

Yap, Mikronézia

földrajzi szélesség: 09-29N, földrajzi hosszúság: 138-05E, magasság: 28 m

Jelenlegi meteorológiai megfigyelések

A jelentés 1 órával és 7 perccel ezelõtt készült, 02:50 UTC
Kelet-északkeleti szél 13 kt
Hőmérséklet 32°C
Páratartalom 71%
Légköri nyomás 1013 hPa
Látótávolság: 19.3 km
Kevés felhő 1800 lábon, Cumulonimbus.
Szórványos felhőzet 30000 lábon

METAR: PTYA 140250Z 06013KT 12SM FEW018CB SCT300 32/26 A2990 RMK CB SE-S SLP123 8/301 T03150257 56007

Idő: 13:57 (03:57 UTC)

Előrejelzés

A jelentés 4 órával és 26 perccel ezelõtt készült, 23:31 UTC
Az előrejelzés 14-én 00 óra UTC és 14-én 24 óra UTC között érvényes
Kelet-északkeleti szél 11 kt
Látótávolság: 10 km
Szórványos felhőzet 1500 lábon
Szórványos felhőzet 15000 lábon
Záporok a közelben,

TAF: PTYA 132331Z 1400/1424 07011KT P6SM VCSH SCT015 SCT150

Meteorológiai megfigyelések és előrejelzések több, mint 4000 repülőtéren (METAR és TAF jelentéseket).

A térképen piros és sárga pontok jelzik az elérhető meteorológiai állomásokat.

Mozgassa az egeret a pont fölött, hogy megjelenjen az állomás neve.

Azután kattintson az időjárási megfigyelések és előrejelzések megtekintéséhez.

A térkép megváltoztatása: kattintson a fekete keresztel jelölt zöld gombra ráközelítéshez, a vonallal jelölt zöld gombra távolításhoz, vagy a zöld nyilakra a szomszédos térképek eléréséhez.


METAR-TAF: